Time;durP1;ratioP1;P1;durP2;ratioP2;P2;SDS_P1;SDS_P2;PMS_P1;PMS_P2;Temp;Humidity;BMP_temperature;BMP_pressure;BME280_temperature;BME280_humidity;BME280_pressure;Samples;Min_cycle;Max_cycle;Signal;HPM_P1;HPM_P2
2022/10/20 00:01:36;;;;;;;0.00;0.00;;;10.60;99.90;;;;;;4990037;28;20566;-79
2022/10/20 00:04:02;;;;;;;0.73;0.73;;;10.60;99.90;;;;;;4975643;28;20038;-77
2022/10/20 00:06:31;;;;;;;0.10;0.10;;;10.50;99.90;;;;;;4976216;28;20026;-78
2022/10/20 00:09:02;;;;;;;0.10;0.10;;;10.50;99.90;;;;;;4977379;28;20030;-78
2022/10/20 00:11:29;;;;;;;0.10;0.10;;;10.60;99.90;;;;;;4977235;28;20121;-79
2022/10/20 00:13:56;;;;;;;0.10;0.10;;;10.60;99.90;;;;;;4994405;28;20065;-78
2022/10/20 00:16:23;;;;;;;0.10;0.10;;;10.60;99.90;;;;;;4994911;28;20053;-78
2022/10/20 00:18:49;;;;;;;0.05;0.05;;;10.60;99.90;;;;;;4994961;28;20026;-78
2022/10/20 00:21:20;;;;;;;0.10;0.10;;;10.50;99.90;;;;;;4994973;28;20022;-79
2022/10/20 00:23:46;;;;;;;0.10;0.10;;;10.50;99.90;;;;;;4973834;28;20027;-78
2022/10/20 00:26:21;;;;;;;0.10;0.10;;;10.50;99.90;;;;;;5082443;23;20066;-78
2022/10/20 00:28:47;;;;;;;0.10;0.10;;;10.40;99.90;;;;;;4997450;28;20046;-79
2022/10/20 00:31:14;;;;;;;0.10;0.10;;;10.40;99.90;;;;;;4980759;28;20521;-79
2022/10/20 00:33:40;;;;;;;0.00;0.00;;;10.40;99.90;;;;;;4998005;28;20030;-78
2022/10/20 00:36:10;;;;;;;0.47;0.47;;;10.40;99.90;;;;;;4981170;28;20022;-78
2022/10/20 00:38:35;;;;;;;0.28;0.28;;;10.30;99.90;;;;;;4999960;28;20054;-78
2022/10/20 00:41:02;;;;;;;0.10;0.10;;;10.30;99.90;;;;;;4984180;28;20041;-78
2022/10/20 00:43:42;;;;;;;0.03;0.03;;;10.30;99.90;;;;;;4997357;28;20037;-78
2022/10/20 00:46:12;;;;;;;0.57;0.57;;;10.20;99.90;;;;;;5019051;28;20015;-78
2022/10/20 00:48:39;;;;;;;0.10;0.10;;;10.20;99.90;;;;;;5018256;28;20019;-78
2022/10/20 00:51:05;;;;;;;0.10;0.10;;;10.10;99.90;;;;;;5017850;28;20252;-79
2022/10/20 00:53:33;;;;;;;0.10;0.10;;;10.10;99.90;;;;;;5041328;23;20082;-76
2022/10/20 00:55:59;;;;;;;0.10;0.10;;;10.00;99.90;;;;;;5018150;28;20015;-77
2022/10/20 00:58:26;;;;;;;0.10;0.10;;;10.00;99.90;;;;;;5018412;28;20026;-78
2022/10/20 01:00:55;;;;;;;0.10;0.10;;;10.00;99.90;;;;;;5018905;28;20030;-80
2022/10/20 01:03:38;;;;;;;0.20;0.20;;;10.10;99.90;;;;;;5019268;28;20090;-78
2022/10/20 01:06:04;;;;;;;12.25;11.40;;;11.10;99.90;;;;;;5001533;28;20070;-77
2022/10/20 01:08:30;;;;;;;0.95;0.95;;;10.10;99.90;;;;;;5002259;28;20011;-78
2022/10/20 01:11:05;;;;;;;0.35;0.35;;;10.10;99.90;;;;;;5000963;28;20027;-82
2022/10/20 01:13:42;;;;;;;0.00;0.00;;;10.50;99.90;;;;;;5016784;28;20105;-81
2022/10/20 01:16:23;;;;;;;1.45;1.45;;;10.10;99.90;;;;;;4999296;28;20027;-79
2022/10/20 01:18:57;;;;;;;0.00;0.00;;;10.10;99.90;;;;;;5016670;28;20036;-79
2022/10/20 01:21:44;;;;;;;0.20;0.20;;;10.10;99.90;;;;;;5015638;28;20046;-78
2022/10/20 01:24:22;;;;;;;0.00;0.00;;;10.10;99.90;;;;;;5015938;28;20034;-78
2022/10/20 01:29:44;;;;;;;0.15;0.15;;;10.00;99.90;;;;;;5071184;23;20034;-77
2022/10/20 01:32:33;;;;;;;0.00;0.00;;;10.00;99.90;;;;;;4996873;28;20086;-76
2022/10/20 01:35:23;;;;;;;0.00;0.00;;;10.00;99.90;;;;;;4997546;28;20083;-77
2022/10/20 01:38:10;;;;;;;0.10;0.10;;;8.80;99.90;;;;;;4979678;28;20027;-77
2022/10/20 01:41:04;;;;;;;0.00;0.00;;;10.00;99.90;;;;;;4980794;28;20023;-76
2022/10/20 01:43:34;;;;;;;0.00;0.00;;;10.00;99.90;;;;;;4980790;28;20029;-77
2022/10/20 01:46:02;;;;;;;0.10;0.10;;;10.00;99.90;;;;;;4997956;28;20167;-77
2022/10/20 01:48:31;;;;;;;0.20;0.20;;;10.00;99.90;;;;;;4995158;28;20041;-77
2022/10/20 01:50:59;;;;;;;0.00;0.00;;;9.90;99.90;;;;;;4997540;28;20019;-76
2022/10/20 01:53:25;;;;;;;0.10;0.10;;;9.90;99.90;;;;;;4994363;28;20006;-76
2022/10/20 01:55:53;;;;;;;0.10;0.10;;;9.90;99.90;;;;;;4995774;28;20019;-77
2022/10/20 01:58:57;;;;;;;0.10;0.10;;;9.80;99.90;;;;;;4996893;28;20033;-77
2022/10/20 02:02:03;;;;;;;0.10;0.10;;;9.60;99.90;;;;;;4997469;28;20046;-76
2022/10/20 02:05:06;;;;;;;0.05;0.05;;;9.60;99.90;;;;;;4996568;28;20050;-76
2022/10/20 02:07:33;;;;;;;0.10;0.10;;;9.70;99.90;;;;;;4978744;28;20010;-76
2022/10/20 02:10:17;;;;;;;0.10;0.10;;;9.60;99.90;;;;;;4995552;28;20023;-76
2022/10/20 02:15:22;;;;;;;0.00;0.00;;;9.40;99.90;;;;;;5026272;23;19905;-77
2022/10/20 02:17:55;;;;;;;0.10;0.10;;;9.40;99.90;;;;;;4999888;28;20104;-76
2022/10/20 02:20:21;;;;;;;0.10;0.10;;;9.40;99.90;;;;;;5017229;28;20006;-76
2022/10/20 02:23:05;;;;;;;0.88;0.88;;;9.40;99.90;;;;;;5015933;28;20592;-76
2022/10/20 02:25:33;;;;;;;0.10;0.10;;;9.40;99.90;;;;;;5016010;28;20014;-77
2022/10/20 02:28:01;;;;;;;0.10;0.10;;;9.30;99.90;;;;;;4997912;23;20065;-76
2022/10/20 02:30:27;;;;;;;0.03;0.03;;;9.30;99.90;;;;;;4972028;28;20051;-77
2022/10/20 02:32:53;;;;;;;0.00;0.00;;;9.30;99.90;;;;;;4973398;28;20170;-77
2022/10/20 02:35:27;;;;;;;0.00;0.00;;;9.20;99.90;;;;;;4974281;28;20166;-76
2022/10/20 02:37:53;;;;;;;0.00;0.00;;;9.30;99.90;;;;;;4973940;28;20026;-77
2022/10/20 02:40:21;;;;;;;0.88;0.88;;;9.30;99.90;;;;;;4955602;28;20406;-76
2022/10/20 02:42:47;;;;;;;0.10;0.10;;;9.20;99.90;;;;;;4975156;28;20022;-78
2022/10/20 02:45:13;;;;;;;0.00;0.00;;;9.10;99.90;;;;;;4996515;28;20011;-79
2022/10/20 02:47:39;;;;;;;0.00;0.00;;;9.10;99.90;;;;;;4997306;28;20038;-77
2022/10/20 02:50:06;;;;;;;0.00;0.00;;;9.00;99.90;;;;;;4997290;28;20035;-76
2022/10/20 02:52:32;;;;;;;3.08;2.83;;;9.00;99.90;;;;;;4996268;28;20030;-78
2022/10/20 02:54:57;;;;;;;0.00;0.00;;;9.10;99.90;;;;;;4993563;28;20066;-77
2022/10/20 02:57:23;;;;;;;0.00;0.00;;;9.00;99.90;;;;;;4995548;28;20035;-76
2022/10/20 02:59:49;;;;;;;0.28;0.28;;;9.00;99.90;;;;;;4996088;28;20042;-77
2022/10/20 03:02:15;;;;;;;0.10;0.10;;;9.00;99.90;;;;;;4995730;28;20094;-77
2022/10/20 03:05:23;;;;;;;0.00;0.00;;;9.10;99.90;;;;;;4994779;28;20019;-76
2022/10/20 03:07:49;;;;;;;0.10;0.10;;;9.00;99.90;;;;;;4994955;28;20014;-77
2022/10/20 03:10:18;;;;;;;0.00;0.00;;;9.10;99.90;;;;;;4996230;28;20043;-76
2022/10/20 03:12:49;;;;;;;0.00;0.00;;;9.00;99.90;;;;;;4994970;28;20062;-78
2022/10/20 03:15:15;;;;;;;0.10;0.10;;;9.10;99.90;;;;;;4997402;28;20003;-77
2022/10/20 03:17:41;;;;;;;0.00;0.00;;;9.10;99.90;;;;;;4995765;28;20070;-76
2022/10/20 03:20:30;;;;;;;0.00;0.00;;;9.20;99.90;;;;;;4996545;28;20099;-77
2022/10/20 03:22:58;;;;;;;0.00;0.00;;;9.10;99.90;;;;;;4949832;29;20087;-77
2022/10/20 03:25:24;;;;;;;0.05;0.05;;;9.10;99.90;;;;;;4955840;29;20047;-77
2022/10/20 03:27:50;;;;;;;0.08;0.08;;;9.20;99.90;;;;;;4955165;29;20016;-77
2022/10/20 03:30:16;;;;;;;0.00;0.00;;;9.20;99.90;;;;;;4939349;29;20028;-77
2022/10/20 03:32:42;;;;;;;0.00;0.00;;;9.10;99.90;;;;;;4923029;29;20147;-76
2022/10/20 03:35:08;;;;;;;0.00;0.00;;;9.10;99.90;;;;;;4935552;29;20027;-77
2022/10/20 03:37:34;;;;;;;0.10;0.10;;;9.20;99.90;;;;;;4932992;29;20070;-76
2022/10/20 03:40:00;;;;;;;0.00;0.00;;;9.30;99.90;;;;;;4917157;29;20027;-77
2022/10/20 03:42:26;;;;;;;0.10;0.10;;;9.30;99.90;;;;;;4917598;29;20091;-76
2022/10/20 03:44:54;;;;;;;0.10;0.10;;;9.30;99.90;;;;;;4954558;29;20020;-81
2022/10/20 03:47:20;;;;;;;0.10;0.10;;;9.30;99.90;;;;;;4954534;29;20075;-78
2022/10/20 03:49:45;;;;;;;0.10;0.10;;;9.40;99.90;;;;;;4955056;29;20042;-77
2022/10/20 03:52:11;;;;;;;0.10;0.10;;;9.40;99.90;;;;;;4956253;29;20040;-79
2022/10/20 03:55:06;;;;;;;0.00;0.00;;;9.30;99.90;;;;;;4972613;28;20026;-77
2022/10/20 03:57:53;;;;;;;0.10;0.10;;;9.30;99.90;;;;;;4995197;28;20031;-77
2022/10/20 04:00:21;;;;;;;0.10;0.10;;;9.30;99.90;;;;;;4918585;29;20054;-77
2022/10/20 04:02:47;;;;;;;1.10;1.10;;;9.40;99.90;;;;;;4936085;29;20036;-78
2022/10/20 04:05:16;;;;;;;0.10;0.10;;;9.40;99.90;;;;;;4918807;29;20172;-78
2022/10/20 04:07:45;;;;;;;0.08;0.08;;;9.40;99.90;;;;;;4935420;29;20039;-77
2022/10/20 04:10:18;;;;;;;0.10;0.10;;;9.40;99.90;;;;;;4932436;29;20032;-77
2022/10/20 04:12:44;;;;;;;0.10;0.10;;;9.40;99.90;;;;;;4928918;29;20047;-77
2022/10/20 04:15:10;;;;;;;0.00;0.00;;;9.30;99.90;;;;;;4927694;29;20047;-77
2022/10/20 04:17:38;;;;;;;3.58;3.40;;;9.30;99.90;;;;;;4911042;29;20342;-77
2022/10/20 04:20:05;;;;;;;0.00;0.00;;;9.30;99.90;;;;;;4914116;29;20079;-77
2022/10/20 04:22:31;;;;;;;0.05;0.05;;;9.30;99.90;;;;;;4914641;29;20259;-77
2022/10/20 04:24:57;;;;;;;0.00;0.00;;;9.30;99.90;;;;;;4930995;29;20050;-77
2022/10/20 04:27:22;;;;;;;2.55;2.40;;;9.30;99.90;;;;;;4913259;29;20314;-76
2022/10/20 04:29:48;;;;;;;0.10;0.10;;;9.20;99.90;;;;;;4930939;29;20645;-77
2022/10/20 04:32:14;;;;;;;0.08;0.08;;;9.20;99.90;;;;;;4972109;28;20051;-77
2022/10/20 04:34:39;;;;;;;0.10;0.10;;;9.30;99.90;;;;;;4978351;28;20054;-77
2022/10/20 04:37:05;;;;;;;0.10;0.10;;;9.30;99.90;;;;;;4977154;28;20058;-76
2022/10/20 04:39:31;;;;;;;1.17;1.17;;;9.30;99.90;;;;;;4979008;28;20079;-77
2022/10/20 04:41:57;;;;;;;0.10;0.10;;;9.40;99.90;;;;;;4978814;28;20423;-77
2022/10/20 04:44:34;;;;;;;0.38;0.38;;;9.40;99.90;;;;;;4989904;28;20042;-78
2022/10/20 04:47:00;;;;;;;0.17;0.17;;;9.50;99.90;;;;;;4998635;28;20011;-76
2022/10/20 04:49:26;;;;;;;0.10;0.10;;;9.50;99.90;;;;;;4998502;28;20003;-79
2022/10/20 04:52:08;;;;;;;0.63;0.63;;;9.50;99.90;;;;;;4998114;28;20023;-78
2022/10/20 04:54:35;;;;;;;0.20;0.20;;;9.50;99.90;;;;;;4989660;28;20021;-77
2022/10/20 04:57:02;;;;;;;0.10;0.10;;;9.50;99.90;;;;;;4976538;28;20062;-78
2022/10/20 04:59:41;;;;;;;0.00;0.00;;;9.50;99.90;;;;;;4984283;28;20054;-77
2022/10/20 05:02:07;;;;;;;0.00;0.00;;;9.40;99.90;;;;;;4976786;28;20027;-77
2022/10/20 05:04:33;;;;;;;0.08;0.08;;;9.40;99.90;;;;;;4975964;28;20309;-77
2022/10/20 05:06:59;;;;;;;0.10;0.10;;;9.40;99.90;;;;;;4975686;28;20382;-77
2022/10/20 05:09:25;;;;;;;0.10;0.10;;;9.40;99.90;;;;;;4975832;28;20033;-77
2022/10/20 05:11:52;;;;;;;0.00;0.00;;;9.40;99.90;;;;;;4973177;28;20400;-77
2022/10/20 05:14:18;;;;;;;0.75;0.75;;;11.30;99.90;;;;;;4974180;28;20035;-77
2022/10/20 05:16:44;;;;;;;0.10;0.10;;;9.40;99.90;;;;;;4977909;28;20033;-77
2022/10/20 05:19:10;;;;;;;0.10;0.10;;;9.30;99.90;;;;;;4973609;28;20031;-76
2022/10/20 05:21:36;;;;;;;0.10;0.10;;;9.30;99.90;;;;;;4973731;28;20462;-77
2022/10/20 05:24:03;;;;;;;0.00;0.00;;;9.30;99.90;;;;;;4958969;28;20077;-77
2022/10/20 05:26:33;;;;;;;0.00;0.00;;;9.30;99.90;;;;;;4975589;28;20098;-77
2022/10/20 05:29:01;;;;;;;0.00;0.00;;;9.30;99.90;;;;;;4978502;28;20030;-77
2022/10/20 05:31:30;;;;;;;0.05;0.05;;;9.20;99.90;;;;;;4997230;28;20239;-77
2022/10/20 05:34:04;;;;;;;0.00;0.00;;;9.20;99.90;;;;;;4997901;28;20007;-77
2022/10/20 05:36:30;;;;;;;0.30;0.30;;;9.20;99.90;;;;;;4994380;28;20039;-78
2022/10/20 05:38:56;;;;;;;0.20;0.20;;;9.10;99.90;;;;;;4997384;28;20038;-77
2022/10/20 05:41:25;;;;;;;0.10;0.10;;;9.10;99.90;;;;;;4997765;28;20106;-76
2022/10/20 05:43:57;;;;;;;0.22;0.22;;;9.10;99.90;;;;;;4997044;28;20033;-77
2022/10/20 05:46:24;;;;;;;0.10;0.10;;;9.00;99.90;;;;;;4972497;28;20029;-77
2022/10/20 05:48:53;;;;;;;0.10;0.10;;;9.00;99.90;;;;;;4971272;28;20023;-77
2022/10/20 05:51:23;;;;;;;0.00;0.00;;;9.00;99.90;;;;;;4971297;28;20039;-77
2022/10/20 05:53:50;;;;;;;0.08;0.08;;;9.00;99.90;;;;;;4978801;28;20050;-77
2022/10/20 05:56:20;;;;;;;0.00;0.00;;;9.60;99.90;;;;;;4978110;28;20043;-77
2022/10/20 05:58:46;;;;;;;0.10;0.10;;;9.00;99.90;;;;;;4977101;28;20308;-77
2022/10/20 06:01:51;;;;;;;0.10;0.10;;;9.00;99.90;;;;;;4992918;28;20042;-78
2022/10/20 06:04:22;;;;;;;0.10;0.10;;;9.10;99.90;;;;;;4981202;28;20034;-77
2022/10/20 06:06:48;;;;;;;0.05;0.05;;;9.10;99.90;;;;;;4997447;28;20018;-77
2022/10/20 06:09:20;;;;;;;0.17;0.17;;;9.00;99.90;;;;;;4996446;28;20054;-76
2022/10/20 06:11:47;;;;;;;0.10;0.10;;;9.00;99.90;;;;;;4995996;28;20046;-78
2022/10/20 06:14:13;;;;;;;0.03;0.03;;;9.00;99.90;;;;;;4994785;28;20082;-77
2022/10/20 06:16:39;;;;;;;0.10;0.10;;;9.00;99.90;;;;;;4995045;28;20046;-78
2022/10/20 06:19:06;;;;;;;0.10;0.10;;;9.00;99.90;;;;;;4996650;28;20029;-78
2022/10/20 06:21:34;;;;;;;0.57;0.57;;;9.10;99.90;;;;;;4996110;28;20034;-77
2022/10/20 06:24:09;;;;;;;0.00;0.00;;;9.10;99.90;;;;;;4994499;28;20023;-77
2022/10/20 06:26:37;;;;;;;0.10;0.10;;;9.10;99.90;;;;;;4994214;28;20023;-77
2022/10/20 06:30:23;;;;;;;0.00;0.00;;;9.10;99.90;;;;;;4986514;23;20047;-77
2022/10/20 06:32:58;;;;;;;0.00;0.00;;;9.00;99.90;;;;;;4954846;28;20058;-77
2022/10/20 06:35:24;;;;;;;0.00;0.00;;;9.30;99.90;;;;;;4974093;28;20526;-77
2022/10/20 06:37:49;;;;;;;5.00;4.88;;;9.40;99.90;;;;;;4955946;28;20568;-77
2022/10/20 06:41:04;;;;;;;17.23;9.40;;;9.40;99.90;;;;;;4994801;23;20077;-77
2022/10/20 06:43:48;;;;;;;0.10;0.10;;;9.90;99.90;;;;;;4929126;29;20551;-77
2022/10/20 06:46:16;;;;;;;0.00;0.00;;;9.50;99.90;;;;;;4932549;29;20068;-77
2022/10/20 06:48:43;;;;;;;2.40;2.30;;;9.60;99.90;;;;;;4951657;29;20028;-78
2022/10/20 06:51:12;;;;;;;0.10;0.10;;;9.70;99.90;;;;;;4949398;29;20024;-77
2022/10/20 06:53:38;;;;;;;0.03;0.03;;;9.80;99.90;;;;;;4951295;29;20032;-77
2022/10/20 06:56:11;;;;;;;0.28;0.28;;;9.90;99.90;;;;;;4951289;29;20039;-77
2022/10/20 06:58:38;;;;;;;0.00;0.00;;;9.90;99.90;;;;;;4952653;29;20282;-76
2022/10/20 07:01:14;;;;;;;0.10;0.10;;;10.00;99.90;;;;;;4950070;29;20108;-76
2022/10/20 07:03:41;;;;;;;0.03;0.03;;;10.10;99.90;;;;;;4951657;29;20023;-77
2022/10/20 07:06:11;;;;;;;0.00;0.00;;;10.10;99.90;;;;;;4952822;29;20027;-76
2022/10/20 07:08:37;;;;;;;0.10;0.10;;;10.20;99.90;;;;;;4947680;29;20024;-77
2022/10/20 07:11:08;;;;;;;0.00;0.00;;;10.40;99.90;;;;;;4944728;29;20039;-80
2022/10/20 07:13:36;;;;;;;0.73;0.68;;;10.50;99.90;;;;;;4945856;29;20083;-77
2022/10/20 07:16:03;;;;;;;14.43;13.45;;;10.60;99.90;;;;;;4947029;29;20111;-78
2022/10/20 07:18:30;;;;;;;1.67;1.65;;;10.80;99.90;;;;;;4948297;29;20080;-80
2022/10/20 07:21:01;;;;;;;0.10;0.10;;;10.80;99.90;;;;;;5001113;28;20282;-79
2022/10/20 07:23:29;;;;;;;2.75;2.65;;;10.90;99.90;;;;;;5014833;28;20006;-77
2022/10/20 07:26:07;;;;;;;0.10;0.10;;;11.00;99.90;;;;;;4996738;28;20034;-86
2022/10/20 07:28:50;;;;;;;0.10;0.10;;;11.10;99.90;;;;;;4992328;28;20031;-78
2022/10/20 07:31:43;;;;;;;0.35;0.35;;;11.20;99.90;;;;;;4991129;28;20030;-77
2022/10/20 07:34:10;;;;;;;0.10;0.10;;;11.30;99.90;;;;;;4988849;28;20026;-77
2022/10/20 07:36:39;;;;;;;0.10;0.10;;;11.50;99.90;;;;;;4976068;28;20011;-78
2022/10/20 07:39:09;;;;;;;2.67;2.47;;;11.60;99.90;;;;;;4974996;28;20046;-78
2022/10/20 07:41:46;;;;;;;0.47;0.47;;;11.80;99.90;;;;;;4974650;28;20051;-87
2022/10/20 07:44:16;;;;;;;3.45;3.25;;;12.00;99.90;;;;;;4966384;28;20050;-80
2022/10/20 07:46:42;;;;;;;0.35;0.35;;;12.00;99.90;;;;;;4961752;28;20062;-86
2022/10/20 07:49:11;;;;;;;0.93;0.93;;;12.30;99.90;;;;;;4960437;28;20082;-79
2022/10/20 07:51:43;;;;;;;0.32;0.32;;;12.40;99.90;;;;;;4959672;28;20097;-78
2022/10/20 07:54:24;;;;;;;0.13;0.13;;;12.60;99.90;;;;;;4959100;28;20445;-82
2022/10/20 07:56:59;;;;;;;0.32;0.32;;;12.80;99.90;;;;;;4960277;28;20085;-80
2022/10/20 07:59:33;;;;;;;0.15;0.15;;;13.10;99.90;;;;;;4960114;28;20034;-78
2022/10/20 08:01:59;;;;;;;0.20;0.20;;;13.70;99.90;;;;;;4959584;28;20190;-78
2022/10/20 08:04:25;;;;;;;1.13;1.13;;;13.10;99.90;;;;;;4941443;28;20173;-78
2022/10/20 08:06:51;;;;;;;1.52;1.45;;;10.40;99.90;;;;;;4959746;28;20106;-84
2022/10/20 08:09:17;;;;;;;0.20;0.20;;;13.40;99.90;;;;;;4959576;28;20173;-85
2022/10/20 08:11:43;;;;;;;2.40;2.33;;;13.50;99.90;;;;;;4959375;28;20370;-79
2022/10/20 08:14:08;;;;;;;0.20;0.20;;;13.60;99.90;;;;;;4941867;28;20092;-82
2022/10/20 08:16:34;;;;;;;0.30;0.30;;;13.60;99.90;;;;;;4958499;28;20034;-86
2022/10/20 08:19:06;;;;;;;0.10;0.10;;;13.80;99.90;;;;;;4960432;28;20022;-92
2022/10/20 08:21:35;;;;;;;0.20;0.20;;;14.00;99.90;;;;;;4960113;28;20023;-92
2022/10/20 08:24:01;;;;;;;21.45;12.32;;;14.10;99.90;;;;;;4958807;28;20498;-79
2022/10/20 08:26:27;;;;;;;0.30;0.30;;;14.20;99.90;;;;;;4941302;28;20526;-77
2022/10/20 08:28:54;;;;;;;0.20;0.20;;;14.30;99.90;;;;;;4959514;28;20015;-78
2022/10/20 08:31:20;;;;;;;0.10;0.10;;;14.40;99.90;;;;;;4959254;28;20456;-81
2022/10/20 08:33:46;;;;;;;1.85;1.70;;;14.30;99.90;;;;;;4959745;28;20019;-76
2022/10/20 08:36:13;;;;;;;1.20;1.20;;;14.20;99.90;;;;;;4959841;28;20023;-76
2022/10/20 08:38:40;;;;;;;0.20;0.20;;;14.20;99.90;;;;;;4959665;28;20313;-84
2022/10/20 08:41:23;;;;;;;0.15;0.15;;;14.60;99.90;;;;;;4959205;28;20586;-78
2022/10/20 08:43:51;;;;;;;0.93;0.93;;;14.70;99.90;;;;;;4958591;28;20069;-83
2022/10/20 08:46:28;;;;;;;12.13;7.93;;;14.80;99.90;;;;;;4959234;28;20611;-79
2022/10/20 08:48:54;;;;;;;0.30;0.30;;;14.70;99.90;;;;;;4959571;28;20027;-79
2022/10/20 08:51:23;;;;;;;2.15;1.95;;;14.60;99.90;;;;;;4960216;28;20058;-78
2022/10/20 08:53:54;;;;;;;0.20;0.20;;;14.70;99.90;;;;;;4958931;28;20537;-77
2022/10/20 08:56:24;;;;;;;0.32;0.32;;;14.90;99.90;;;;;;4959056;28;20453;-77
2022/10/20 08:58:50;;;;;;;0.20;0.20;;;15.20;99.90;;;;;;4941369;28;20030;-78
2022/10/20 09:01:26;;;;;;;1.00;1.00;;;15.40;99.90;;;;;;4958660;28;20349;-77
2022/10/20 09:04:04;;;;;;;0.10;0.10;;;15.60;99.90;;;;;;4958897;28;20410;-77
2022/10/20 09:06:30;;;;;;;0.98;0.98;;;15.80;99.90;;;;;;4944863;28;20087;-82
2022/10/20 09:08:56;;;;;;;1.45;1.45;;;16.00;99.90;;;;;;4962000;28;20019;-77
2022/10/20 09:11:33;;;;;;;0.10;0.10;;;16.20;99.90;;;;;;4961937;28;20027;-79
2022/10/20 09:13:59;;;;;;;3.97;3.78;;;16.10;99.90;;;;;;4962256;28;20019;-76
2022/10/20 09:16:37;;;;;;;0.20;0.20;;;16.20;99.90;;;;;;4962616;28;20015;-76
2022/10/20 09:19:04;;;;;;;0.10;0.10;;;16.00;99.90;;;;;;4962255;28;20051;-77
2022/10/20 09:21:31;;;;;;;0.35;0.35;;;16.30;99.90;;;;;;4962204;28;20027;-79
2022/10/20 09:24:05;;;;;;;0.10;0.10;;;16.10;99.30;;;;;;4960561;28;20063;-82
2022/10/20 09:26:39;;;;;;;0.43;0.43;;;16.30;98.90;;;;;;4962262;28;20033;-79
2022/10/20 09:29:08;;;;;;;0.85;0.73;;;16.40;98.80;;;;;;4962394;28;20205;-81
2022/10/20 09:31:53;;;;;;;0.93;0.93;;;16.50;98.50;;;;;;4962114;28;20058;-83
2022/10/20 09:34:27;;;;;;;4.60;1.20;;;16.70;98.80;;;;;;4962853;28;20288;-79
2022/10/20 09:37:16;;;;;;;2.17;2.08;;;16.60;97.90;;;;;;4961822;28;20042;-79
2022/10/20 09:39:45;;;;;;;0.10;0.10;;;16.80;97.90;;;;;;4961802;28;20034;-80
2022/10/20 09:42:19;;;;;;;0.10;0.10;;;16.90;97.50;;;;;;4961221;28;20027;-81
2022/10/20 09:45:05;;;;;;;0.82;0.82;;;17.00;97.00;;;;;;4962658;28;20656;-84
2022/10/20 09:47:33;;;;;;;0.10;0.10;;;17.20;96.10;;;;;;4962177;28;20510;-76
2022/10/20 09:50:05;;;;;;;0.52;0.52;;;17.10;95.30;;;;;;4961956;28;20036;-79
2022/10/20 09:52:43;;;;;;;0.10;0.10;;;17.50;95.60;;;;;;4961095;28;20050;-79
2022/10/20 09:55:34;;;;;;;0.22;0.22;;;17.30;94.40;;;;;;4962080;28;20030;-81
2022/10/20 09:58:02;;;;;;;0.10;0.10;;;17.40;93.50;;;;;;4883033;29;20222;-83
2022/10/20 10:00:34;;;;;;;0.10;0.10;;;17.60;93.80;;;;;;4882675;29;20092;-80
2022/10/20 10:03:18;;;;;;;0.20;0.20;;;17.70;93.10;;;;;;4882540;29;20331;-78
2022/10/20 10:05:47;;;;;;;0.38;0.38;;;17.80;93.50;;;;;;4882849;29;20377;-79
2022/10/20 10:08:15;;;;;;;1.00;1.00;;;17.80;92.80;;;;;;4883316;29;20040;-82
2022/10/20 10:10:44;;;;;;;0.10;0.10;;;17.80;92.70;;;;;;4882747;29;20348;-83
2022/10/20 10:13:36;;;;;;;0.10;0.10;;;17.80;92.70;;;;;;4882445;29;20259;-82
2022/10/20 10:16:08;;;;;;;0.52;0.52;;;17.80;93.00;;;;;;4883363;29;20040;-87
2022/10/20 10:18:36;;;;;;;0.52;0.52;;;17.80;93.00;;;;;;4885331;29;20569;-84
2022/10/20 10:21:10;;;;;;;0.20;0.20;;;17.90;93.20;;;;;;4885149;29;20083;-79
2022/10/20 10:23:53;;;;;;;0.40;0.40;;;18.00;92.70;;;;;;4884267;29;20025;-90
2022/10/20 10:26:38;;;;;;;0.40;0.40;;;18.20;91.80;;;;;;4883798;29;20067;-79
2022/10/20 10:29:04;;;;;;;0.10;0.10;;;18.30;91.90;;;;;;4881941;29;20120;-80
2022/10/20 10:31:32;;;;;;;0.47;0.47;;;18.30;91.40;;;;;;4881435;29;20425;-79
2022/10/20 10:34:18;;;;;;;0.25;0.25;;;18.40;91.00;;;;;;4886813;28;20338;-78
2022/10/20 10:36:43;;;;;;;1.38;1.27;;;18.50;90.60;;;;;;4961289;28;20047;-79
2022/10/20 10:39:14;;;;;;;0.10;0.10;;;18.60;90.30;;;;;;4961174;28;20363;-77
2022/10/20 10:41:58;;;;;;;0.17;0.17;;;18.50;90.60;;;;;;4961625;28;20047;-89
2022/10/20 10:44:53;;;;;;;0.10;0.10;;;18.50;90.60;;;;;;4963135;28;20254;-80
2022/10/20 10:47:45;;;;;;;0.10;0.10;;;18.50;90.70;;;;;;4966253;28;20526;-81
2022/10/20 10:50:26;;;;;;;0.20;0.20;;;18.60;90.20;;;;;;4966240;28;20033;-81
2022/10/20 10:53:30;;;;;;;0.17;0.17;;;18.80;89.80;;;;;;4968126;28;20526;-79
2022/10/20 10:56:19;;;;;;;0.10;0.10;;;18.90;89.90;;;;;;4965642;28;20110;-82
2022/10/20 10:58:55;;;;;;;0.60;0.60;;;19.00;88.30;;;;;;4962771;28;20066;-79
2022/10/20 11:01:26;;;;;;;1.23;1.23;;;19.20;87.50;;;;;;4962446;28;20087;-77
2022/10/20 11:04:04;;;;;;;0.10;0.10;;;19.20;87.80;;;;;;4961675;28;20522;-77
2022/10/20 11:06:43;;;;;;;0.20;0.20;;;19.00;87.60;;;;;;4961904;28;20026;-84
2022/10/20 11:09:15;;;;;;;0.20;0.20;;;19.30;87.10;;;;;;4962204;28;20341;-84
2022/10/20 11:12:18;;;;;;;0.40;0.40;;;19.30;87.40;;;;;;4960563;28;20038;-77
2022/10/20 11:15:21;;;;;;;0.10;0.10;;;19.30;86.90;;;;;;4943216;28;20217;-76
2022/10/20 11:17:57;;;;;;;0.10;0.10;;;19.30;87.20;;;;;;4960800;28;20031;-87
2022/10/20 11:20:53;;;;;;;0.30;0.30;;;19.40;86.70;;;;;;4960554;28;20086;-81
2022/10/20 11:23:29;;;;;;;0.10;0.10;;;19.50;86.50;;;;;;4960552;28;20474;-82
2022/10/20 11:26:02;;;;;;;0.10;0.10;;;19.50;86.20;;;;;;4960507;28;20018;-77
2022/10/20 11:28:35;;;;;;;0.10;0.10;;;19.40;86.20;;;;;;4960202;28;20548;-82
2022/10/20 11:31:03;;;;;;;0.10;0.10;;;19.50;85.40;;;;;;4959773;28;20133;-80
2022/10/20 11:33:42;;;;;;;0.10;0.10;;;19.90;86.10;;;;;;4960138;28;20453;-82
2022/10/20 11:36:15;;;;;;;0.10;0.10;;;20.20;83.70;;;;;;4959723;28;20434;-78
2022/10/20 11:38:53;;;;;;;0.52;0.40;;;18.10;82.00;;;;;;4961069;28;20638;-77
2022/10/20 11:41:31;;;;;;;0.10;0.10;;;20.10;82.40;;;;;;4960573;28;20050;-86
2022/10/20 11:44:12;;;;;;;0.10;0.10;;;19.90;83.20;;;;;;4960269;28;20207;-81
2022/10/20 11:46:45;;;;;;;0.17;0.17;;;19.90;82.00;;;;;;4960095;28;20034;-78
2022/10/20 11:49:11;;;;;;;1.17;1.08;;;20.00;82.10;;;;;;4960291;28;20027;-84
2022/10/20 11:52:01;;;;;;;0.10;0.10;;;20.10;80.90;;;;;;4959901;28;20099;-84
2022/10/20 11:54:36;;;;;;;0.10;0.10;;;20.50;80.30;;;;;;4959956;28;20065;-80
2022/10/20 11:57:13;;;;;;;0.30;0.30;;;20.60;80.40;;;;;;4960175;28;20038;-81
2022/10/20 11:59:59;;;;;;;0.50;0.50;;;20.80;78.30;;;;;;4960868;28;20022;-80
2022/10/20 12:02:57;;;;;;;0.10;0.10;;;20.70;77.30;;;;;;4960428;28;20050;-78
2022/10/20 12:05:41;;;;;;;9.45;2.28;;;20.70;77.50;;;;;;4958513;28;20448;-79
2022/10/20 12:08:32;;;;;;;0.30;0.30;;;20.80;77.90;;;;;;4960381;28;20122;-78
2022/10/20 12:11:22;;;;;;;0.10;0.10;;;20.90;76.80;;;;;;4959857;28;20026;-82
2022/10/20 12:13:48;;;;;;;0.10;0.10;;;20.90;76.10;;;;;;4959311;28;20054;-78
2022/10/20 12:16:52;;;;;;;0.20;0.20;;;20.90;75.60;;;;;;4959354;28;20055;-81
2022/10/20 12:19:21;;;;;;;0.10;0.10;;;21.10;74.20;;;;;;4959642;28;20367;-78
2022/10/20 12:22:17;;;;;;;1.08;0.65;;;21.10;74.70;;;;;;4959445;28;20023;-78
2022/10/20 12:25:03;;;;;;;0.10;0.10;;;21.10;75.70;;;;;;4960003;28;20394;-78
2022/10/20 12:27:29;;;;;;;0.10;0.10;;;21.40;74.00;;;;;;4959357;28;20027;-85
2022/10/20 12:30:24;;;;;;;0.15;0.15;;;21.70;72.00;;;;;;4959510;28;20019;-91
2022/10/20 12:32:57;;;;;;;0.10;0.10;;;21.60;71.80;;;;;;4880393;29;20140;-85
2022/10/20 12:35:22;;;;;;;0.88;0.63;;;21.40;72.50;;;;;;4879934;29;20607;-82
2022/10/20 12:38:16;;;;;;;0.10;0.10;;;21.50;72.40;;;;;;4880634;29;20068;-80
2022/10/20 12:40:56;;;;;;;0.75;0.75;;;21.80;72.00;;;;;;4882532;29;20048;-82
2022/10/20 12:43:35;;;;;;;4.78;1.20;;;21.60;72.10;;;;;;4884256;29;20033;-88
2022/10/20 12:46:10;;;;;;;0.10;0.10;;;21.60;72.00;;;;;;4884451;29;20025;-79
2022/10/20 12:48:42;;;;;;;0.10;0.10;;;21.60;72.00;;;;;;4883765;29;20069;-86
2022/10/20 12:51:19;;;;;;;0.10;0.10;;;21.90;72.20;;;;;;4885103;29;20231;-83
2022/10/20 12:54:01;;;;;;;0.73;0.73;;;22.10;71.10;;;;;;4884534;29;20868;-79
2022/10/20 12:56:32;;;;;;;0.85;0.85;;;22.40;70.40;;;;;;4884400;29;20099;-80
2022/10/20 12:59:20;;;;;;;0.10;0.10;;;22.60;70.10;;;;;;4884672;29;20391;-79
2022/10/20 13:02:10;;;;;;;0.10;0.10;;;22.80;68.90;;;;;;4884954;29;20231;-83
2022/10/20 13:04:57;;;;;;;1.27;1.27;;;22.80;69.10;;;;;;4889608;29;20096;-83
2022/10/20 13:07:46;;;;;;;0.10;0.10;;;22.80;68.60;;;;;;4892776;29;20116;-80
2022/10/20 13:10:27;;;;;;;0.20;0.20;;;22.90;69.10;;;;;;4941978;28;20057;-79
2022/10/20 13:13:19;;;;;;;0.10;0.10;;;23.00;69.50;;;;;;4974453;28;20045;-78
2022/10/20 13:15:46;;;;;;;0.20;0.20;;;23.20;67.90;;;;;;4970531;28;20106;-80
2022/10/20 13:18:11;;;;;;;0.00;0.00;;;23.60;66.30;;;;;;4964632;28;20030;-80
2022/10/20 13:20:59;;;;;;;1.02;0.68;;;23.60;65.30;;;;;;4969478;28;20082;-86
2022/10/20 13:23:40;;;;;;;0.10;0.10;;;23.50;65.80;;;;;;4966915;28;20050;-87
2022/10/20 13:26:25;;;;;;;1.30;1.20;;;23.60;65.30;;;;;;4963963;28;20022;-84
2022/10/20 13:28:53;;;;;;;0.10;0.10;;;23.70;65.20;;;;;;4962964;28;20019;-78